Addy, Washington
Current Conditions -  °F | °C
As of 10:53 AM on Thursday 30 Oct 2014 (Local Time) from KDEW Reporting Station
Overcast Overcast  
Wind Chill: 53°   Ceiling: 7500
Heat Index: 53°   Visibility: 10mi
Dew Point: 44°   Wind: 12mph
Humidity: 71%   Direction: 20°NNE
Pressure: 30.1"   Gusts: NA
Location:  48.36°N, 117.84°W
Report Text: KDEW 301753Z AUTO 02010KT 10SM BKN075 OVC090 12/07 A3010 RMK AO2 SLP197 T01170067 10117 20078 58012
Loading
Personal Weather Stations






























Interactive Weather Map
Tropical Storm Tracking
New forecast layout! Learn more

10-Day Weather Forecast

Advertisements
Track Severe Weather on mobile